createdAt,value
2018-01-11T00:00:37.360Z,97.07
2018-01-11T00:01:37.584Z,97.16
2018-01-11T00:02:37.577Z,96.97
2018-01-11T00:03:37.560Z,96.97
2018-01-11T00:04:37.543Z,96.97
2018-01-11T00:05:37.526Z,96.97
2018-01-11T00:06:37.515Z,97.16
2018-01-11T00:07:37.504Z,97.16
2018-01-11T00:08:37.500Z,97.16
2018-01-11T00:09:37.486Z,96.59
2018-01-11T00:10:37.462Z,96.88
2018-01-11T00:11:37.461Z,96.12
2018-01-11T00:12:37.438Z,96.12
2018-01-11T00:13:37.420Z,96.12
2018-01-11T00:14:37.412Z,96.12
2018-01-11T00:15:37.134Z,96.41
2018-01-11T00:16:37.378Z,96.12
2018-01-11T00:17:37.363Z,96.03
2018-01-11T00:18:37.092Z,96.03
2018-01-11T00:19:37.344Z,96.69
2018-01-11T00:20:37.337Z,96.59
2018-01-11T00:21:37.319Z,96.5
2018-01-11T00:22:37.297Z,96.59
2018-01-11T00:23:37.314Z,96.59
2018-01-11T00:24:37.284Z,96.31
2018-01-11T00:25:37.269Z,96.22
2018-01-11T00:26:37.246Z,96.31
2018-01-11T00:27:36.971Z,96.31
2018-01-11T00:28:36.968Z,96.12
2018-01-11T00:29:36.949Z,96.69
2018-01-11T00:30:37.186Z,96.41
2018-01-11T00:31:37.172Z,96.03
2018-01-11T00:32:37.156Z,96.31
2018-01-11T00:33:37.145Z,97.45
2018-01-11T00:34:37.132Z,96.78
2018-01-11T00:35:37.126Z,97.07
2018-01-11T00:36:36.857Z,96.88
2018-01-11T00:37:37.096Z,97.07
2018-01-11T00:38:37.081Z,97.07
2018-01-11T00:39:37.064Z,96.97
2018-01-11T00:40:37.053Z,97.07
2018-01-11T00:41:37.036Z,97.07
2018-01-11T00:42:37.031Z,96.88
2018-01-11T00:43:37.011Z,96.78
2018-01-11T00:44:36.996Z,96.12
2018-01-11T00:45:36.994Z,96.03
2018-01-11T00:46:36.718Z,97.07
2018-01-11T00:47:36.967Z,96.31
2018-01-11T00:48:36.943Z,96.12
2018-01-11T00:49:36.931Z,96.31
2018-01-11T00:50:36.659Z,96.88
2018-01-11T00:51:36.902Z,96.97
2018-01-11T00:52:36.886Z,96.03
2018-01-11T00:53:36.874Z,96.22
2018-01-11T00:54:36.869Z,95.93
2018-01-11T00:55:36.888Z,95.93
2018-01-11T00:56:36.833Z,96.78
2018-01-11T00:57:36.885Z,97.07
2018-01-11T00:58:36.810Z,97.16
2018-01-11T00:59:36.792Z,96.97
2018-01-11T01:00:36.786Z,97.26
2018-01-11T01:01:36.791Z,97.07
2018-01-11T01:02:36.754Z,97.26
2018-01-11T01:03:36.735Z,97.26
2018-01-11T01:04:36.726Z,97.21
2018-01-11T01:05:36.709Z,97.02
2018-01-11T01:06:36.694Z,96.55
2018-01-11T01:07:36.690Z,96.55
2018-01-11T01:08:36.667Z,96.83
2018-01-11T01:09:36.660Z,96.45
2018-01-11T01:10:36.641Z,96.36
2018-01-11T01:11:36.628Z,96.17
2018-01-11T01:12:36.617Z,96.36
2018-01-11T01:13:36.609Z,96.26
2018-01-11T01:14:36.590Z,96.55
2018-01-11T01:15:36.576Z,96.36
2018-01-11T01:16:36.568Z,96.17
2018-01-11T01:17:36.549Z,96.36
2018-01-11T01:18:36.549Z,96.45
2018-01-11T01:19:36.519Z,96.36
2018-01-11T01:20:36.504Z,96.45
2018-01-11T01:21:36.242Z,96.36
2018-01-11T01:22:36.491Z,96.36
2018-01-11T01:23:36.476Z,96.45
2018-01-11T01:24:36.455Z,96.26
2018-01-11T01:25:36.443Z,96.64
2018-01-11T01:26:36.170Z,96.55
2018-01-11T01:27:36.435Z,96.55
2018-01-11T01:28:36.408Z,96.73
2018-01-11T01:29:36.403Z,96.17
2018-01-11T01:30:36.375Z,96.26
2018-01-11T01:31:36.360Z,95.88
2018-01-11T01:32:36.090Z,96.64
2018-01-11T01:33:36.334Z,96.55
2018-01-11T01:34:36.328Z,96.64
2018-01-11T01:35:36.314Z,96.83
2018-01-11T01:36:36.036Z,96.55
2018-01-11T01:37:36.287Z,96.36
2018-01-11T01:38:36.267Z,96.64
2018-01-11T01:39:35.999Z,96.64
2018-01-11T01:40:36.241Z,96.55
2018-01-11T01:41:36.228Z,96.55
2018-01-11T01:42:36.214Z,96.17
2018-01-11T01:43:36.208Z,96.55
2018-01-11T01:44:36.195Z,96.55
2018-01-11T01:45:35.923Z,96.26
2018-01-11T01:46:36.158Z,96.55
2018-01-11T01:47:36.148Z,96.55
2018-01-11T01:48:36.135Z,96.73
2018-01-11T01:49:36.126Z,96.45
2018-01-11T01:50:36.108Z,96.45
2018-01-11T01:51:36.103Z,96.45
2018-01-11T01:52:36.081Z,96.17
2018-01-11T01:53:36.069Z,96.36
2018-01-11T01:54:36.053Z,96.26
2018-01-11T01:55:36.050Z,96.26
2018-01-11T01:56:36.027Z,96.55
2018-01-11T01:57:36.057Z,96.17
2018-01-11T01:58:36.007Z,96.17
2018-01-11T01:59:35.990Z,96.36
2018-01-11T02:00:35.986Z,96.17
2018-01-11T02:01:35.707Z,96.64
2018-01-11T02:02:35.948Z,96.36
2018-01-11T02:03:35.943Z,96.55
2018-01-11T02:04:35.933Z,96.26
2018-01-11T02:05:35.917Z,96.55
2018-01-11T02:06:35.898Z,96.36
2018-01-11T02:07:35.632Z,96.26
2018-01-11T02:08:35.875Z,96.17
2018-01-11T02:09:35.861Z,96.36
2018-01-11T02:10:35.861Z,96.17
2018-01-11T02:11:35.831Z,96.17
2018-01-11T02:12:35.820Z,96.45
2018-01-11T02:13:35.821Z,96.55
2018-01-11T02:14:35.793Z,96.55
2018-01-11T02:15:35.780Z,96.36
2018-01-11T02:16:35.775Z,96.83
2018-01-11T02:17:35.757Z,96.55
2018-01-11T02:18:35.737Z,96.55
2018-01-11T02:19:35.742Z,96.36
2018-01-11T02:20:35.713Z,96.73
2018-01-11T02:21:35.698Z,96.64
2018-01-11T02:22:35.698Z,95.69
2018-01-11T02:23:35.422Z,96.64
2018-01-11T02:24:35.722Z,96.55
2018-01-11T02:25:35.645Z,96.08
2018-01-11T02:26:35.378Z,96.55
2018-01-11T02:27:35.362Z,96.73
2018-01-11T02:28:35.616Z,96.55
2018-01-11T02:29:35.601Z,96.55
2018-01-11T02:30:35.584Z,96.08
2018-01-11T02:31:35.585Z,96.17
2018-01-11T02:32:35.556Z,96.55
2018-01-11T02:33:35.554Z,96.64
2018-01-11T02:34:35.529Z,96.73
2018-01-11T02:35:35.522Z,96.64
2018-01-11T02:36:35.244Z,96.55
2018-01-11T02:37:35.485Z,96.64
2018-01-11T02:38:35.482Z,96.64
2018-01-11T02:39:35.471Z,96.55
2018-01-11T02:40:35.452Z,96.55
2018-01-11T02:41:35.433Z,96.36
2018-01-11T02:42:35.434Z,96.73
2018-01-11T02:43:35.419Z,96.64
2018-01-11T02:44:35.395Z,96.55
2018-01-11T02:45:35.123Z,96.36
2018-01-11T02:46:35.128Z,96.45
2018-01-11T02:47:35.353Z,96.36
2018-01-11T02:48:35.348Z,96.55
2018-01-11T02:49:35.074Z,96.64
2018-01-11T02:50:35.322Z,96.64
2018-01-11T02:51:35.319Z,96.64
2018-01-11T02:52:35.037Z,96.73
2018-01-11T02:53:35.289Z,96.26
2018-01-11T02:54:35.276Z,96.55
2018-01-11T02:55:35.005Z,96.64
2018-01-11T02:56:35.238Z,96.26
2018-01-11T02:57:35.230Z,96.64
2018-01-11T02:58:35.214Z,96.64
2018-01-11T02:59:35.195Z,96.73
2018-01-11T03:00:35.191Z,96.73
2018-01-11T03:01:35.177Z,96.45
2018-01-11T03:02:35.152Z,96.55
2018-01-11T03:03:34.886Z,96.73
2018-01-11T03:04:35.127Z,96.55
2018-01-11T03:05:34.861Z,96.26
2018-01-11T03:06:35.106Z,96.26
2018-01-11T03:07:35.087Z,96.55
2018-01-11T03:08:35.084Z,95.98
2018-01-11T03:09:35.071Z,96.83
2018-01-11T03:10:35.050Z,96.64
2018-01-11T03:11:34.784Z,96.08
2018-01-11T03:12:35.027Z,96.45
2018-01-11T03:13:35.026Z,96.08
2018-01-11T03:14:35.008Z,96.73
2018-01-11T03:15:34.987Z,96.26
2018-01-11T03:16:34.975Z,96.45
2018-01-11T03:17:34.700Z,96.45
2018-01-11T03:18:34.940Z,96.08
2018-01-11T03:19:34.935Z,96.36
2018-01-11T03:20:34.665Z,96.55
2018-01-11T03:21:34.646Z,96.17
2018-01-11T03:22:34.902Z,96.17
2018-01-11T03:23:34.883Z,96.55
2018-01-11T03:24:34.607Z,96.36
2018-01-11T03:25:34.869Z,96.55
2018-01-11T03:26:34.583Z,96.59
2018-01-11T03:27:34.827Z,96.08
2018-01-11T03:28:34.818Z,96.78
2018-01-11T03:29:34.544Z,96.31
2018-01-11T03:30:34.797Z,96.22
2018-01-11T03:31:34.783Z,96.5
2018-01-11T03:32:34.758Z,96.31
2018-01-11T03:33:34.749Z,96.59
2018-01-11T03:34:34.745Z,96.59
2018-01-11T03:35:34.740Z,96.78
2018-01-11T03:36:34.709Z,96.41
2018-01-11T03:37:34.445Z,96.69
2018-01-11T03:38:34.682Z,96.12
2018-01-11T03:39:34.672Z,95.74
2018-01-11T03:40:34.665Z,95.93
2018-01-11T03:41:34.642Z,96.59
2018-01-11T03:42:34.635Z,96.12
2018-01-11T03:43:34.626Z,96.69
2018-01-11T03:44:34.347Z,96.03
2018-01-11T03:45:34.337Z,95.93
2018-01-11T03:46:34.585Z,96.03
2018-01-11T03:47:34.562Z,96.78
2018-01-11T03:48:34.301Z,96.41
2018-01-11T03:49:34.535Z,95.93
2018-01-11T03:50:34.523Z,96.22
2018-01-11T03:51:34.528Z,96.22
2018-01-11T03:52:34.509Z,95.74
2018-01-11T03:53:34.237Z,96.03
2018-01-11T03:54:34.224Z,96.69
2018-01-11T03:55:34.462Z,96.88
2018-01-11T03:56:34.188Z,96.69
2018-01-11T03:57:34.185Z,96.69
2018-01-11T03:58:34.430Z,96.59
2018-01-11T03:59:34.152Z,96.22
2018-01-11T04:00:34.139Z,96.12
2018-01-11T04:01:34.124Z,96.5
2018-01-11T04:02:34.380Z,95.84
2018-01-11T04:03:34.104Z,96.03
2018-01-11T04:04:34.350Z,95.98
2018-01-11T04:05:34.074Z,95.88
2018-01-11T04:06:34.059Z,96.41
2018-01-11T04:07:34.302Z,95.98
2018-01-11T04:08:34.047Z,96.08
2018-01-11T04:09:34.278Z,96.55
2018-01-11T04:10:34.018Z,95.98
2018-01-11T04:11:34.002Z,95.69
2018-01-11T04:12:34.242Z,95.79
2018-01-11T04:13:34.230Z,96.17
2018-01-11T04:14:34.214Z,95.79
2018-01-11T04:15:34.198Z,96.08
2018-01-11T04:16:34.199Z,96.17
2018-01-11T04:17:34.172Z,96.36
2018-01-11T04:18:34.171Z,96.83
2018-01-11T04:19:33.916Z,96.69
2018-01-11T04:20:33.882Z,96.88
2018-01-11T04:21:33.869Z,96.88
2018-01-11T04:22:33.855Z,97.16
2018-01-11T04:23:34.101Z,96.69
2018-01-11T04:24:33.828Z,96.78
2018-01-11T04:25:33.818Z,96.78
2018-01-11T04:26:34.061Z,96.97
2018-01-11T04:27:34.048Z,96.41
2018-01-11T04:28:33.773Z,96.59
2018-01-11T04:29:33.756Z,96.69
2018-01-11T04:30:34.011Z,96.69
2018-01-11T04:31:33.733Z,97.45
2018-01-11T04:32:33.983Z,97.26
2018-01-11T04:33:33.974Z,96.59
2018-01-11T04:34:33.948Z,96.97
2018-01-11T04:35:33.933Z,96.41
2018-01-11T04:36:33.931Z,96.97
2018-01-11T04:37:33.911Z,97.45
2018-01-11T04:38:33.895Z,97.07
2018-01-11T04:39:33.632Z,97.54
2018-01-11T04:40:33.889Z,97.54
2018-01-11T04:41:33.855Z,97.26
2018-01-11T04:42:33.840Z,97.45
2018-01-11T04:43:33.828Z,97.31
2018-01-11T04:44:33.557Z,97.31
2018-01-11T04:45:33.797Z,97.59
2018-01-11T04:46:33.532Z,96.73
2018-01-11T04:47:33.772Z,96.83
2018-01-11T04:48:33.763Z,96.55
2018-01-11T04:49:33.489Z,96.97
2018-01-11T04:50:33.738Z,96.88
2018-01-11T04:51:33.719Z,96.69
2018-01-11T04:52:33.704Z,96.69
2018-01-11T04:53:33.439Z,96.69
2018-01-11T04:54:33.681Z,96.97
2018-01-11T04:55:33.665Z,97.35
2018-01-11T04:56:33.651Z,97.26
2018-01-11T04:57:33.638Z,96.97
2018-01-11T04:58:33.376Z,97.07
2018-01-11T04:59:33.630Z,96.88
2018-01-11T05:00:33.596Z,97.07
2018-01-11T05:01:33.583Z,97.31
2018-01-11T05:02:33.311Z,97.31
2018-01-11T05:03:33.298Z,97.35
2018-01-11T05:04:33.285Z,97.35
2018-01-11T05:05:33.270Z,97.54
2018-01-11T05:06:33.514Z,96.78
2018-01-11T05:07:33.508Z,97.35
2018-01-11T05:08:33.513Z,97.35
2018-01-11T05:09:33.484Z,96.88
2018-01-11T05:10:33.458Z,97.45
2018-01-11T05:11:33.455Z,97.07
2018-01-11T05:12:33.175Z,97.16
2018-01-11T05:13:33.430Z,96.97
2018-01-11T05:14:33.408Z,97.26
2018-01-11T05:15:33.393Z,96.88
2018-01-11T05:16:33.379Z,97.26
2018-01-11T05:17:33.365Z,97.64
2018-01-11T05:18:33.098Z,97.35
2018-01-11T05:19:33.335Z,97.49
2018-01-11T05:20:33.327Z,97.4
2018-01-11T05:21:33.308Z,97.49
2018-01-11T05:22:33.297Z,97.83
2018-01-11T05:23:33.289Z,97.78
2018-01-11T05:24:33.276Z,97.73
2018-01-11T05:25:33.268Z,97.68
2018-01-11T05:26:33.243Z,97.21
2018-01-11T05:27:32.982Z,97.21
2018-01-11T05:28:33.221Z,97.59
2018-01-11T05:29:33.208Z,97.68
2018-01-11T05:30:32.928Z,97.78
2018-01-11T05:31:33.178Z,97.59
2018-01-11T05:32:33.157Z,97.4
2018-01-11T05:33:33.158Z,97.68
2018-01-11T05:34:32.882Z,97.4
2018-01-11T05:35:33.167Z,97.49
2018-01-11T05:36:33.104Z,97.4
2018-01-11T05:37:32.829Z,97.49
2018-01-11T05:38:33.083Z,97.59
2018-01-11T05:39:32.805Z,97.4
2018-01-11T05:40:32.791Z,97.21
2018-01-11T05:41:32.774Z,97.3
2018-01-11T05:42:33.020Z,97.4
2018-01-11T05:43:32.754Z,97.3
2018-01-11T05:44:32.994Z,97.4
2018-01-11T05:45:32.976Z,97.02
2018-01-11T05:46:32.969Z,97.49
2018-01-11T05:47:32.955Z,97.4
2018-01-11T05:48:32.944Z,97.3
2018-01-11T05:49:32.921Z,97.3
2018-01-11T05:50:32.907Z,97.4
2018-01-11T05:51:32.890Z,96.88
2018-01-11T05:52:32.879Z,96.97
2018-01-11T05:53:32.604Z,97.35
2018-01-11T05:54:32.594Z,97.45
2018-01-11T05:55:32.581Z,97.26
2018-01-11T05:56:32.570Z,96.97
2018-01-11T05:57:32.806Z,97.54
2018-01-11T05:58:32.537Z,96.97
2018-01-11T05:59:32.787Z,97.35
2018-01-11T06:00:32.775Z,97.21
2018-01-11T06:01:32.498Z,96.92
2018-01-11T06:02:32.488Z,96.59
2018-01-11T06:03:32.466Z,97.35
2018-01-11T06:04:32.714Z,96.97
2018-01-11T06:05:32.701Z,96.88
2018-01-11T06:06:32.678Z,96.97
2018-01-11T06:07:32.667Z,97.35
2018-01-11T06:08:32.651Z,96.88
2018-01-11T06:09:32.384Z,96.97
2018-01-11T06:10:32.627Z,96.78
2018-01-11T06:11:32.609Z,96.97
2018-01-11T06:12:32.602Z,96.78
2018-01-11T06:13:32.332Z,97.16
2018-01-11T06:14:32.574Z,97.07
2018-01-11T06:15:32.552Z,97.12
2018-01-11T06:16:32.542Z,97.02
2018-01-11T06:17:32.532Z,96.64
2018-01-11T06:18:32.522Z,96.73
2018-01-11T06:19:32.510Z,96.55
2018-01-11T06:20:32.487Z,96.45
2018-01-11T06:21:32.214Z,96.64
2018-01-11T06:22:32.468Z,96.64
2018-01-11T06:23:32.455Z,96.64
2018-01-11T06:24:32.431Z,96.92
2018-01-11T06:25:32.172Z,97.02
2018-01-11T06:26:32.404Z,96.73
2018-01-11T06:27:32.401Z,96.55
2018-01-11T06:28:32.126Z,96.73
2018-01-11T06:29:32.362Z,96.45
2018-01-11T06:30:32.361Z,96.83
2018-01-11T06:31:32.340Z,96.55
2018-01-11T06:32:32.074Z,96.55
2018-01-11T06:33:32.309Z,96.73
2018-01-11T06:34:32.374Z,96.55
2018-01-11T06:35:32.283Z,96.73
2018-01-11T06:36:32.276Z,96.73
2018-01-11T06:37:32.267Z,96.55
2018-01-11T06:38:32.242Z,96.64
2018-01-11T06:39:31.978Z,96.45
2018-01-11T06:40:32.223Z,96.73
2018-01-11T06:41:32.213Z,96.26
2018-01-11T06:42:32.241Z,96.55
2018-01-11T06:43:32.185Z,96.45
2018-01-11T06:44:32.166Z,96.31
2018-01-11T06:45:32.164Z,96.73
2018-01-11T06:46:32.137Z,96.55
2018-01-11T06:47:32.125Z,96.64
2018-01-11T06:48:32.126Z,96.45
2018-01-11T06:49:32.095Z,96.73
2018-01-11T06:50:32.086Z,96.45
2018-01-11T06:51:32.077Z,96.45
2018-01-11T06:52:32.057Z,96.59
2018-01-11T06:53:32.042Z,96.59
2018-01-11T06:54:32.029Z,95.88
2018-01-11T06:55:32.036Z,96.55
2018-01-11T06:56:32.012Z,95.88
2018-01-11T06:57:31.992Z,95.88
2018-01-11T06:58:31.986Z,96.36
2018-01-11T06:59:31.977Z,96.59
2018-01-11T07:00:31.968Z,96.69
2018-01-11T07:01:31.950Z,95.93
2018-01-11T07:02:31.924Z,96.12
2018-01-11T07:03:31.658Z,96.03
2018-01-11T07:04:31.910Z,95.84
2018-01-11T07:05:31.888Z,96.03
2018-01-11T07:06:31.884Z,95.98
2018-01-11T07:07:31.867Z,95.69
2018-01-11T07:08:31.851Z,95.74
2018-01-11T07:09:31.832Z,96.45
2018-01-11T07:10:31.819Z,96.69
2018-01-11T07:11:31.831Z,96.78
2018-01-11T07:12:31.807Z,96.5
2018-01-11T07:13:31.790Z,96.31
2018-01-11T07:14:31.778Z,96.03
2018-01-11T07:15:31.753Z,95.69
2018-01-11T07:16:31.751Z,96.59
2018-01-11T07:17:31.729Z,96.5
2018-01-11T07:18:31.712Z,96.55
2018-01-11T07:19:31.704Z,96.59
2018-01-11T07:20:31.687Z,96.59
2018-01-11T07:21:31.421Z,96.5
2018-01-11T07:22:31.666Z,96.5
2018-01-11T07:23:31.397Z,96.31
2018-01-11T07:24:31.644Z,96.5
2018-01-11T07:25:31.620Z,96.5
2018-01-11T07:26:31.612Z,96.59
2018-01-11T07:27:31.603Z,96.78
2018-01-11T07:28:31.584Z,96.5
2018-01-11T07:29:31.580Z,96.59
2018-01-11T07:30:31.557Z,96.69
2018-01-11T07:31:31.556Z,96.59
2018-01-11T07:32:31.536Z,95.74
2018-01-11T07:33:31.515Z,96.5
2018-01-11T07:34:31.503Z,96.03
2018-01-11T07:35:31.503Z,96.22
2018-01-11T07:36:31.485Z,96.59
2018-01-11T07:37:31.462Z,96.69
2018-01-11T07:38:31.193Z,96.5
2018-01-11T07:39:31.439Z,96.5
2018-01-11T07:40:31.192Z,96.12
2018-01-11T07:41:31.422Z,96.41
2018-01-11T07:42:31.397Z,96.59
2018-01-11T07:43:31.384Z,95.74
2018-01-11T07:44:31.385Z,96.41
2018-01-11T07:45:31.364Z,96.59
2018-01-11T07:46:31.354Z,96.41
2018-01-11T07:47:31.385Z,96.59
2018-01-11T07:48:31.320Z,96.78
2018-01-11T07:49:31.312Z,96.31
2018-01-11T07:50:31.297Z,96.5
2018-01-11T07:51:31.288Z,96.5
2018-01-11T07:52:31.269Z,96.03
2018-01-11T07:53:31.268Z,96.17
2018-01-11T07:54:31.243Z,95.88
2018-01-11T07:55:31.235Z,96.03
2018-01-11T07:56:31.214Z,96.69
2018-01-11T07:57:31.204Z,96.31
2018-01-11T07:58:31.205Z,96.5
2018-01-11T07:59:30.960Z,96.78
2018-01-11T08:00:31.162Z,96.5
2018-01-11T08:01:31.161Z,96.5
2018-01-11T08:02:31.142Z,96.69
2018-01-11T08:03:30.895Z,96.31
2018-01-11T08:04:31.126Z,96.12
2018-01-11T08:05:31.106Z,96.12
2018-01-11T08:06:31.089Z,96.45
2018-01-11T08:07:31.094Z,96.64
2018-01-11T08:08:31.068Z,96.55
2018-01-11T08:09:31.043Z,96.64
2018-01-11T08:10:31.040Z,96.36
2018-01-11T08:11:31.022Z,96.64
2018-01-11T08:12:31.017Z,96.55
2018-01-11T08:13:31.000Z,96.55
2018-01-11T08:14:30.981Z,96.55
2018-01-11T08:15:30.967Z,96.64
2018-01-11T08:16:30.977Z,96.45
2018-01-11T08:17:30.957Z,96.55
2018-01-11T08:18:30.928Z,96.45
2018-01-11T08:19:30.943Z,96.55
2018-01-11T08:20:30.933Z,96.36
2018-01-11T08:21:30.910Z,96.64
2018-01-11T08:22:30.882Z,97.02
2018-01-11T08:23:30.875Z,96.55
2018-01-11T08:24:30.869Z,96.45
2018-01-11T08:25:30.840Z,96.45
2018-01-11T08:26:30.844Z,96.55
2018-01-11T08:27:30.814Z,96.08
2018-01-11T08:28:30.828Z,95.98
2018-01-11T08:29:30.786Z,96.17
2018-01-11T08:30:30.770Z,95.98
2018-01-11T08:31:30.774Z,95.98
2018-01-11T08:32:30.756Z,95.41
2018-01-11T08:33:30.483Z,95.22
2018-01-11T08:34:30.728Z,95.31
2018-01-11T08:35:30.746Z,95.41
2018-01-11T08:36:30.709Z,95.69
2018-01-11T08:37:30.678Z,95.6
2018-01-11T08:38:30.670Z,95.79
2018-01-11T08:39:30.695Z,95.6
2018-01-11T08:40:30.641Z,95.79
2018-01-11T08:41:30.634Z,95.88
2018-01-11T08:42:30.636Z,95.69
2018-01-11T08:43:30.602Z,95.79
2018-01-11T08:44:30.601Z,95.69
2018-01-11T08:45:30.585Z,95.88
2018-01-11T08:46:30.570Z,95.88
2018-01-11T08:47:30.548Z,95.12
2018-01-11T08:48:30.553Z,95.5
2018-01-11T08:49:30.524Z,95.46
2018-01-11T08:50:30.520Z,95.5
2018-01-11T08:51:30.506Z,95.41
2018-01-11T08:52:30.479Z,95.17
2018-01-11T08:53:30.485Z,95.27
2018-01-11T08:54:30.459Z,95.36
2018-01-11T08:55:30.443Z,95.27
2018-01-11T08:56:30.433Z,95.27
2018-01-11T08:57:30.422Z,95.27
2018-01-11T08:58:30.412Z,95.6
2018-01-11T08:59:30.399Z,95.55
2018-01-11T09:00:30.150Z,95.5
2018-01-11T09:01:30.373Z,95.12
2018-01-11T09:02:30.373Z,95.07
2018-01-11T09:03:30.364Z,94.98
2018-01-11T09:04:30.341Z,95.22
2018-01-11T09:05:30.324Z,95.55
2018-01-11T09:06:30.049Z,95.55
2018-01-11T09:07:30.033Z,95.27
2018-01-11T09:08:30.277Z,94.98
2018-01-11T09:09:30.006Z,95.17
2018-01-11T09:10:30.264Z,94.98
2018-01-11T09:11:30.246Z,94.79
2018-01-11T09:12:29.969Z,95.55
2018-01-11T09:13:29.956Z,95.46
2018-01-11T09:14:30.210Z,95.46
2018-01-11T09:15:30.233Z,95.55
2018-01-11T09:16:30.172Z,95.93
2018-01-11T09:17:30.203Z,95.36
2018-01-11T09:18:29.895Z,95.36
2018-01-11T09:19:30.140Z,95.46
2018-01-11T09:20:30.146Z,95.93
2018-01-11T09:21:30.156Z,95.27
2018-01-11T09:22:30.141Z,95.07
2018-01-11T09:23:30.098Z,95.36
2018-01-11T09:24:30.148Z,95.93
2018-01-11T09:25:30.116Z,95.17
2018-01-11T09:26:30.372Z,95.27
2018-01-11T09:27:30.090Z,94.89
2018-01-11T09:28:30.112Z,95.46
2018-01-11T09:29:30.013Z,95.07
2018-01-11T09:30:30.004Z,95.17
2018-01-11T09:31:30.047Z,95.17
2018-01-11T09:32:30.035Z,94.98
2018-01-11T09:33:29.982Z,94.89
2018-01-11T09:34:29.940Z,95.17
2018-01-11T09:35:29.962Z,95.03
2018-01-11T09:36:29.677Z,95.7
2018-01-11T09:37:29.956Z,94.93
2018-01-11T09:38:29.918Z,94.74
2018-01-11T09:39:29.896Z,94.74
2018-01-11T09:40:29.882Z,94.65
2018-01-11T09:41:29.873Z,94.93
2018-01-11T09:42:29.892Z,95.7
2018-01-11T09:43:29.833Z,95.7
2018-01-11T09:44:29.824Z,95.7
2018-01-11T09:45:29.808Z,95.03
2018-01-11T09:46:29.803Z,95.22
2018-01-11T09:47:29.785Z,95.31
2018-01-11T09:48:29.767Z,95.51
2018-01-11T09:49:29.752Z,94.93
2018-01-11T09:50:29.762Z,94.84
2018-01-11T09:51:29.725Z,94.93
2018-01-11T09:52:29.740Z,94.93
2018-01-11T09:53:29.723Z,94.93
2018-01-11T09:54:29.684Z,94.93
2018-01-11T09:55:29.671Z,94.84
2018-01-11T09:56:29.704Z,94.74
2018-01-11T09:57:29.664Z,94.84
2018-01-11T09:58:29.640Z,94.84
2018-01-11T09:59:29.623Z,95.12
2018-01-11T10:00:29.647Z,94.93
2018-01-11T10:01:29.600Z,94.46
2018-01-11T10:02:29.596Z,94.65
2018-01-11T10:03:29.613Z,94.93
2018-01-11T10:04:29.569Z,95.31
2018-01-11T10:05:29.573Z,94.93
2018-01-11T10:06:29.298Z,94.65
2018-01-11T10:07:29.282Z,94.65
2018-01-11T10:08:29.280Z,94.65
2018-01-11T10:09:29.537Z,94.93
2018-01-11T10:10:29.504Z,94.93
2018-01-11T10:11:29.517Z,94.84
2018-01-11T10:12:29.490Z,94.93
2018-01-11T10:13:29.448Z,95.31
2018-01-11T10:14:29.488Z,95.31
2018-01-11T10:15:29.443Z,95.31
2018-01-11T10:16:29.185Z,95.31
2018-01-11T10:17:29.444Z,95.03
2018-01-11T10:18:29.393Z,95.12
2018-01-11T10:19:29.394Z,95.12
2018-01-11T10:20:29.435Z,95.22
2018-01-11T10:21:29.660Z,95.22
2018-01-11T10:22:29.422Z,95.31
2018-01-11T10:23:29.395Z,94.93
2018-01-11T10:24:29.352Z,95.51
2018-01-11T10:25:29.085Z,95.55
2018-01-11T10:26:29.303Z,95.08
2018-01-11T10:27:29.290Z,94.98
2018-01-11T10:28:29.286Z,94.7
2018-01-11T10:29:29.363Z,94.7
2018-01-11T10:30:29.282Z,94.7
2018-01-11T10:31:29.241Z,94.98
2018-01-11T10:32:28.966Z,94.89
2018-01-11T10:33:29.243Z,94.98
2018-01-11T10:34:29.202Z,94.13
2018-01-11T10:35:28.941Z,94.7
2018-01-11T10:36:29.227Z,94.32
2018-01-11T10:37:29.204Z,94.6
2018-01-11T10:38:28.929Z,94.7
2018-01-11T10:39:29.160Z,94.79
2018-01-11T10:40:29.188Z,94.89
2018-01-11T10:41:29.117Z,94.51
2018-01-11T10:42:29.108Z,94.98
2018-01-11T10:43:29.133Z,94.79
2018-01-11T10:44:29.077Z,94.51
2018-01-11T10:45:29.135Z,94.23
2018-01-11T10:46:29.109Z,94.89
2018-01-11T10:47:29.082Z,94.32
2018-01-11T10:48:28.839Z,95.17
2018-01-11T10:49:29.067Z,94.42
2018-01-11T10:50:28.799Z,94.27
2018-01-11T10:51:29.055Z,94.32
2018-01-11T10:52:29.019Z,95.03
2018-01-11T10:53:29.032Z,94.93
2018-01-11T10:54:28.961Z,94.84
2018-01-11T10:55:28.951Z,94.93
2018-01-11T10:56:28.943Z,94.7
2018-01-11T10:57:28.954Z,94.79
2018-01-11T10:58:28.970Z,95.27
2018-01-11T10:59:28.938Z,95.08
2018-01-11T11:00:28.668Z,95.12
2018-01-11T11:01:28.930Z,94.98
2018-01-11T11:02:28.932Z,94.98
2018-01-11T11:03:28.869Z,94.98
2018-01-11T11:04:28.850Z,95.75
2018-01-11T11:05:28.860Z,94.98
2018-01-11T11:06:28.826Z,95.84
2018-01-11T11:07:28.824Z,95.46
2018-01-11T11:08:28.810Z,95.36
2018-01-11T11:09:28.845Z,95.65
2018-01-11T11:10:28.787Z,95.36
2018-01-11T11:11:28.776Z,95.12
2018-01-11T11:12:28.762Z,95.41
2018-01-11T11:13:28.521Z,95.51
2018-01-11T11:14:28.733Z,95.12
2018-01-11T11:15:28.731Z,95.41
2018-01-11T11:16:28.709Z,95.41
2018-01-11T11:17:28.704Z,95.41
2018-01-11T11:18:28.692Z,95.41
2018-01-11T11:19:28.669Z,95.31
2018-01-11T11:20:28.655Z,95.7
2018-01-11T11:21:28.656Z,95.41
2018-01-11T11:22:28.663Z,95.51
2018-01-11T11:23:29.073Z,95.51
2018-01-11T11:24:28.609Z,95.6
2018-01-11T11:25:28.340Z,95.6
2018-01-11T11:26:28.596Z,95.98
2018-01-11T11:27:28.581Z,95.6
2018-01-11T11:28:28.304Z,95.6
2018-01-11T11:29:28.556Z,95.41
2018-01-11T11:30:28.538Z,95.51
2018-01-11T11:31:28.560Z,95.89
2018-01-11T11:32:28.510Z,95.51
2018-01-11T11:33:28.531Z,95.89
2018-01-11T11:34:28.237Z,95.51
2018-01-11T11:35:28.494Z,95.6
2018-01-11T11:36:28.538Z,95.51
2018-01-11T11:37:28.218Z,95.6
2018-01-11T11:38:28.473Z,95.6
2018-01-11T11:39:28.983Z,95.31
2018-01-11T11:40:28.465Z,95.79
2018-01-11T11:41:28.420Z,95.79
2018-01-11T11:42:28.453Z,96.08
2018-01-11T11:43:28.408Z,95.6
2018-01-11T11:44:28.377Z,95.6
2018-01-11T11:45:28.365Z,95.6
2018-01-11T11:46:28.347Z,95.41
2018-01-11T11:47:28.356Z,95.79
2018-01-11T11:48:28.334Z,95.79
2018-01-11T11:49:28.379Z,95.51
2018-01-11T11:50:28.317Z,95.98
2018-01-11T11:51:28.291Z,95.51
2018-01-11T11:52:28.285Z,95.51
2018-01-11T11:53:28.297Z,95.31
2018-01-11T11:54:28.259Z,95.51
2018-01-11T11:55:28.257Z,95.6
2018-01-11T11:56:28.230Z,95.7
2018-01-11T11:57:28.212Z,95.41
2018-01-11T11:58:28.222Z,95.41
2018-01-11T11:59:28.188Z,95.41
2018-01-11T12:00:27.916Z,95.51
2018-01-11T12:01:28.213Z,95.65
2018-01-11T12:02:28.185Z,94.98
2018-01-11T12:03:27.882Z,94.89
2018-01-11T12:04:28.130Z,95.17
2018-01-11T12:05:28.132Z,95.08
2018-01-11T12:06:27.857Z,95.17
2018-01-11T12:07:28.109Z,95.17
2018-01-11T12:08:28.154Z,95.17
2018-01-11T12:09:28.068Z,94.89
2018-01-11T12:10:28.080Z,95.36
2018-01-11T12:11:28.053Z,95.46
2018-01-11T12:12:28.062Z,94.89
2018-01-11T12:13:28.022Z,94.89
2018-01-11T12:14:27.759Z,95.36
2018-01-11T12:15:28.014Z,94.98
2018-01-11T12:16:27.999Z,95.36
2018-01-11T12:17:28.026Z,95.08
2018-01-11T12:18:28.033Z,95.17
2018-01-11T12:19:28.026Z,95.36
2018-01-11T12:20:27.979Z,95.75
2018-01-11T12:21:27.984Z,94.98
2018-01-11T12:22:27.957Z,95.46
2018-01-11T12:23:27.961Z,94.79
2018-01-11T12:24:27.947Z,94.84
2018-01-11T12:25:28.186Z,95.03
2018-01-11T12:26:27.648Z,95.03
2018-01-11T12:27:27.889Z,95.03
2018-01-11T12:28:27.620Z,95.17
2018-01-11T12:29:27.909Z,94.93
2018-01-11T12:30:28.115Z,95.17
2018-01-11T12:31:27.848Z,94.89
2018-01-11T12:32:27.893Z,94.98
2018-01-11T12:33:27.820Z,94.89
2018-01-11T12:34:27.836Z,94.89
2018-01-11T12:35:27.784Z,94.89
2018-01-11T12:36:27.767Z,94.79
2018-01-11T12:37:27.760Z,94.79
2018-01-11T12:38:27.505Z,94.98
2018-01-11T12:39:27.776Z,95.55
2018-01-11T12:40:27.762Z,95.36
2018-01-11T12:41:27.740Z,95.08
2018-01-11T12:42:27.733Z,95.46
2018-01-11T12:43:27.721Z,95.65
2018-01-11T12:44:27.434Z,95.75
2018-01-11T12:45:27.415Z,95.36
2018-01-11T12:46:27.758Z,95.36
2018-01-11T12:47:27.653Z,95.55
2018-01-11T12:48:27.691Z,95.65
2018-01-11T12:49:27.695Z,95.36
2018-01-11T12:50:27.594Z,95.65
2018-01-11T12:51:27.645Z,95.17
2018-01-11T12:52:27.597Z,95.55
2018-01-11T12:53:27.571Z,95.27
2018-01-11T12:54:27.836Z,95.65